Time;durP1;ratioP1;P1;durP2;ratioP2;P2;SDS_P1;SDS_P2;PMS_P1;PMS_P2;Temp;Humidity;BMP_temperature;BMP_pressure;BME280_temperature;BME280_humidity;BME280_pressure;Samples;Min_cycle;Max_cycle;Signal;HPM_P1;HPM_P2
2022/01/21 00:01:40;;;;;;;9.90;3.50;;;;;;;-2.87;80.72;98565.27;108451;1274;22702;-75
2022/01/21 00:04:09;;;;;;;13.70;3.10;;;;;;;-2.89;80.62;98573.31;108455;1273;22580;-75
2022/01/21 00:06:36;;;;;;;8.10;2.90;;;;;;;-2.88;80.32;98574.52;108462;1273;22579;-75
2022/01/21 00:09:03;;;;;;;8.20;2.70;;;;;;;-2.90;79.92;98574.17;108429;1273;22552;-76
2022/01/21 00:11:31;;;;;;;9.70;3.10;;;;;;;-2.91;79.95;98575.05;108432;1274;22872;-75
2022/01/21 00:13:59;;;;;;;7.30;2.50;;;;;;;-2.93;79.49;98574.88;108464;1273;22552;-76
2022/01/21 00:16:27;;;;;;;12.20;3.00;;;;;;;-2.94;79.56;98576.43;108472;1274;22580;-75
2022/01/21 00:19:02;;;;;;;12.40;4.10;;;;;;;-2.94;79.60;98582.90;108466;1274;22710;-75
2022/01/21 00:32:35;;;;;;;9.50;3.70;;;;;;;-2.98;80.21;98592.69;108448;1273;22563;-74
2022/01/21 00:35:02;;;;;;;11.50;4.10;;;;;;;-3.01;79.94;98596.11;108447;1273;24381;-76
2022/01/21 00:37:29;;;;;;;12.90;4.50;;;;;;;-3.04;79.62;98599.05;108443;1273;22559;-75
2022/01/21 00:39:59;;;;;;;12.60;4.00;;;;;;;-3.10;79.61;98602.86;108454;1274;22565;-75
2022/01/21 00:44:59;;;;;;;12.20;5.30;;;;;;;-3.10;79.74;98614.80;108441;1273;22622;-77
2022/01/21 00:47:26;;;;;;;;;;;;;;;-3.09;80.02;98617.16;108448;1273;22537;-76
2022/01/21 00:49:54;;;;;;;9.70;4.20;;;;;;;-3.10;80.10;98622.11;108425;1273;25393;-77
2022/01/21 00:52:21;;;;;;;12.00;4.70;;;;;;;-3.12;80.39;98626.40;108446;1273;22577;-77
2022/01/21 00:54:48;;;;;;;9.50;4.40;;;;;;;-3.17;80.26;98631.55;108457;1273;22619;-75
2022/01/21 00:57:15;;;;;;;12.70;3.70;;;;;;;-3.19;80.04;98632.42;108442;1273;22666;-77
2022/01/21 00:59:42;;;;;;;13.00;4.40;;;;;;;-3.22;79.61;98633.30;108439;1273;22629;-75
2022/01/21 01:02:09;;;;;;;12.00;4.50;;;;;;;-3.28;79.26;98639.67;108437;1273;24262;-76
2022/01/21 01:04:36;;;;;;;8.40;3.10;;;;;;;-3.34;79.21;98639.23;108441;1273;22577;-75
2022/01/21 01:07:04;;;;;;;8.60;3.70;;;;;;;-3.39;79.32;98641.83;108450;1273;24672;-75
2022/01/21 01:09:31;;;;;;;14.50;5.10;;;;;;;-3.34;79.16;98644.17;108453;1274;22598;-75
2022/01/21 01:20:03;;;;;;;9.90;4.10;;;;;;;-3.31;79.63;98654.02;108437;1273;22559;-76
2022/01/21 01:22:49;;;;;;;10.90;3.40;;;;;;;-3.32;79.40;98662.89;108446;1273;22674;-75
2022/01/21 01:28:03;;;;;;;6.30;1.90;;;;;;;-3.36;78.82;98665.98;108441;1273;22781;-77
2022/01/21 01:30:32;;;;;;;10.40;3.40;;;;;;;-3.32;78.38;98669.70;108460;1273;22666;-76
2022/01/21 01:33:01;;;;;;;6.70;3.10;;;;;;;-3.30;78.74;98666.59;108460;1273;22561;-76
2022/01/21 01:35:32;;;;;;;9.60;3.00;;;;;;;-3.29;78.62;98670.69;108468;1273;22651;-76
2022/01/21 01:40:36;;;;;;;6.40;2.00;;;;;;;-3.33;78.43;98671.06;108494;1273;22550;-76
2022/01/21 01:51:20;;;;;;;7.80;2.30;;;;;;;-3.39;77.36;98678.61;108528;1273;22633;-76
2022/01/21 01:53:55;;;;;;;10.80;3.20;;;;;;;-3.38;77.15;98684.21;108478;1273;23072;-75
2022/01/21 01:56:29;;;;;;;12.00;3.30;;;;;;;-3.37;77.36;98687.95;108428;1273;22663;-75
2022/01/21 01:58:56;;;;;;;11.60;3.30;;;;;;;-3.38;77.66;98687.27;108420;1273;22550;-75
2022/01/21 02:01:23;;;;;;;7.20;2.10;;;;;;;-3.39;78.31;98692.92;108437;1273;22544;-76
2022/01/21 02:03:50;;;;;;;7.60;2.40;;;;;;;-3.42;78.28;98698.23;108439;1273;22572;-74
2022/01/21 02:06:17;;;;;;;6.60;2.50;;;;;;;-3.45;77.81;98698.07;108513;1273;22654;-75
2022/01/21 02:08:44;;;;;;;8.50;2.30;;;;;;;-3.53;77.53;98707.48;108444;1273;22566;-75
2022/01/21 02:11:11;;;;;;;7.40;2.30;;;;;;;-3.60;77.63;98706.35;108449;1273;22560;-75
2022/01/21 02:13:43;;;;;;;5.10;1.80;;;;;;;-3.64;77.33;98703.99;108460;1273;22591;-74
2022/01/21 02:16:32;;;;;;;5.90;2.00;;;;;;;-3.70;77.12;98707.63;108453;1274;22562;-75
2022/01/21 02:21:47;;;;;;;5.30;1.50;;;;;;;-3.83;76.92;98710.94;108436;1273;22598;-76
2022/01/21 02:24:19;;;;;;;4.40;1.90;;;;;;;-3.87;76.80;98714.04;108449;1274;25519;-77
2022/01/21 02:26:47;;;;;;;6.30;2.60;;;;;;;-3.86;76.67;98714.55;108432;1273;22557;-76
2022/01/21 02:29:26;;;;;;;11.40;3.30;;;;;;;-3.85;77.13;98718.96;108439;1273;22573;-75
2022/01/21 02:31:55;;;;;;;8.80;2.70;;;;;;;-3.83;77.57;98717.74;108421;1273;22626;-76
2022/01/21 02:34:22;;;;;;;10.00;3.00;;;;;;;-3.84;77.76;98715.71;108447;1273;22551;-76
2022/01/21 02:36:49;;;;;;;7.60;2.60;;;;;;;-3.84;77.41;98716.05;108446;1273;25268;-74
2022/01/21 02:39:16;;;;;;;7.30;2.20;;;;;;;-3.85;77.17;98721.68;108456;1273;22591;-75
2022/01/21 02:41:44;;;;;;;10.50;1.90;;;;;;;-3.87;77.01;98721.36;108438;1273;22601;-74
2022/01/21 02:44:15;;;;;;;11.00;2.00;;;;;;;-3.84;76.58;98719.96;108458;1274;22813;-75
2022/01/21 02:46:44;;;;;;;4.40;1.50;;;;;;;-3.86;76.30;98724.06;108445;1273;22550;-76
2022/01/21 02:49:12;;;;;;;5.90;1.90;;;;;;;-3.90;76.43;98725.79;108431;1274;22664;-76
2022/01/21 02:51:39;;;;;;;8.20;1.80;;;;;;;-3.92;75.92;98725.80;108453;1273;22572;-75
2022/01/21 02:54:06;;;;;;;7.30;1.90;;;;;;;-3.90;75.75;98731.91;108427;1274;22620;-75
2022/01/21 02:56:38;;;;;;;9.00;2.50;;;;;;;-3.87;75.65;98730.72;108437;1273;25335;-74
2022/01/21 02:59:07;;;;;;;6.60;2.20;;;;;;;-3.90;76.08;98728.17;108446;1273;22636;-74
2022/01/21 03:01:36;;;;;;;8.70;2.70;;;;;;;-3.90;76.58;98730.05;108433;1273;22562;-75
2022/01/21 03:04:05;;;;;;;6.90;1.70;;;;;;;-3.94;76.79;98731.77;108468;1273;22550;-75
2022/01/21 03:06:33;;;;;;;5.40;2.00;;;;;;;-4.00;76.61;98733.67;108463;1273;22569;-74
2022/01/21 03:09:00;;;;;;;9.00;2.00;;;;;;;-4.06;75.98;98737.63;108457;1273;25429;-75
2022/01/21 03:11:28;;;;;;;6.10;1.80;;;;;;;-4.13;75.64;98739.71;108437;1273;22579;-76
2022/01/21 03:13:55;;;;;;;5.00;1.50;;;;;;;-4.21;75.40;98740.08;108433;1273;22566;-75
2022/01/21 03:16:23;;;;;;;5.50;1.40;;;;;;;-4.29;75.35;98749.98;108442;1273;22620;-75
2022/01/21 03:18:51;;;;;;;3.50;1.40;;;;;;;-4.35;75.50;98752.55;108465;1273;22585;-74
2022/01/21 03:21:18;;;;;;;8.20;2.00;;;;;;;-4.40;75.18;98755.12;108444;1273;23462;-75
2022/01/21 03:23:54;;;;;;;11.20;2.40;;;;;;;-4.47;75.24;98756.33;108457;1273;22598;-75
2022/01/21 03:26:24;;;;;;;8.60;2.20;;;;;;;-4.54;75.03;98769.10;108446;1273;22562;-75
2022/01/21 03:28:55;;;;;;;7.80;2.60;;;;;;;-4.55;75.32;98768.42;108456;1274;24283;-75
2022/01/21 03:31:22;;;;;;;8.60;2.60;;;;;;;-4.52;75.47;98769.10;108452;1273;25481;-75
2022/01/21 03:33:50;;;;;;;11.00;2.70;;;;;;;-4.54;75.95;98770.63;108469;1274;22620;-75
2022/01/21 03:36:17;;;;;;;5.00;1.60;;;;;;;-4.56;76.30;98771.15;108447;1273;25481;-74
2022/01/21 03:38:44;;;;;;;5.80;1.40;;;;;;;-4.60;75.88;98777.11;108448;1273;22560;-75
2022/01/21 03:41:11;;;;;;;5.80;1.80;;;;;;;-4.64;75.53;98780.00;108448;1273;22551;-75
2022/01/21 03:43:38;;;;;;;7.40;1.80;;;;;;;-4.69;75.29;98780.36;108460;1273;22603;-75
2022/01/21 03:46:05;;;;;;;6.50;2.00;;;;;;;-4.72;75.15;98781.38;108427;1273;22763;-74
2022/01/21 03:48:33;;;;;;;6.50;2.30;;;;;;;-4.76;75.27;98781.23;108441;1274;22613;-75
2022/01/21 03:51:00;;;;;;;10.30;2.50;;;;;;;-4.79;75.30;98783.27;108463;1274;22578;-75
2022/01/21 03:53:27;;;;;;;5.50;2.20;;;;;;;-4.82;75.23;98784.13;108428;1273;22560;-75
2022/01/21 03:55:54;;;;;;;6.80;1.90;;;;;;;-4.85;75.11;98785.15;108435;1273;22758;-75
2022/01/21 03:58:22;;;;;;;7.30;2.50;;;;;;;-4.88;75.17;98794.31;108445;1274;22644;-75
2022/01/21 04:00:52;;;;;;;10.40;3.20;;;;;;;-4.90;75.17;98796.86;108452;1273;23102;-75
2022/01/21 04:03:21;;;;;;;10.80;3.00;;;;;;;-4.86;75.16;98798.05;108449;1274;22587;-74
2022/01/21 04:05:48;;;;;;;8.20;2.80;;;;;;;-4.84;75.53;98798.73;108459;1273;24250;-75
2022/01/21 04:08:15;;;;;;;7.10;2.50;;;;;;;-4.81;76.25;98799.57;108466;1273;22595;-75
2022/01/21 04:10:42;;;;;;;11.60;3.10;;;;;;;-4.80;76.58;98799.56;108443;1274;22573;-75
2022/01/21 04:13:18;;;;;;;7.10;2.30;;;;;;;-4.77;76.43;98802.30;108453;1273;22708;-75
2022/01/21 04:15:50;;;;;;;7.50;2.60;;;;;;;-4.76;76.12;98805.02;108454;1274;25299;-76
2022/01/21 04:18:18;;;;;;;7.80;1.90;;;;;;;-4.75;75.89;98801.62;108457;1274;24390;-75
2022/01/21 04:20:47;;;;;;;9.10;1.80;;;;;;;-4.74;75.86;98803.98;108436;1273;24375;-76
2022/01/21 04:23:17;;;;;;;7.70;2.00;;;;;;;-4.74;76.22;98809.42;108387;1274;22710;-74
2022/01/21 04:25:44;;;;;;;8.70;2.20;;;;;;;-4.70;75.90;98802.96;108451;1273;22571;-79
2022/01/21 04:28:11;;;;;;;8.10;2.20;;;;;;;-4.65;76.32;98806.34;108390;1274;22558;-77
2022/01/21 04:30:38;;;;;;;9.30;1.90;;;;;;;-4.56;76.69;98805.98;108446;1274;25311;-76
2022/01/21 04:33:05;;;;;;;5.10;1.90;;;;;;;-4.52;77.04;98804.80;108474;1273;22577;-77
2022/01/21 04:35:33;;;;;;;7.10;1.80;;;;;;;-4.43;77.21;98810.20;108471;1274;22562;-76
2022/01/21 04:38:04;;;;;;;5.70;1.30;;;;;;;-4.45;77.28;98814.45;108481;1273;22579;-77
2022/01/21 04:40:36;;;;;;;6.40;1.60;;;;;;;-4.41;76.95;98813.61;108447;1273;22564;-76
2022/01/21 04:48:36;;;;;;;7.40;1.70;;;;;;;-4.37;76.58;98820.39;108497;1274;22558;-76
2022/01/21 04:53:41;;;;;;;12.90;3.00;;;;;;;-4.36;76.62;98810.02;108446;1274;22569;-76
2022/01/21 04:56:08;;;;;;;9.40;2.40;;;;;;;-4.30;76.89;98815.95;108481;1274;22544;-77
2022/01/21 04:58:35;;;;;;;6.30;2.00;;;;;;;-4.26;77.01;98816.28;108503;1274;22549;-76
2022/01/21 05:01:05;;;;;;;4.80;1.70;;;;;;;-4.21;77.39;98818.32;108531;1274;25483;-79
2022/01/21 05:03:33;;;;;;;7.20;1.80;;;;;;;-4.23;77.49;98816.27;108480;1274;22549;-78
2022/01/21 05:06:01;;;;;;;6.00;1.50;;;;;;;-4.21;77.19;98816.95;108429;1274;22552;-79
2022/01/21 05:08:38;;;;;;;6.50;1.40;;;;;;;-4.21;77.10;98820.36;108434;1274;22556;-78
2022/01/21 05:11:06;;;;;;;7.60;2.10;;;;;;;-4.23;76.92;98820.87;108467;1273;22660;-79
2022/01/21 05:13:40;;;;;;;5.20;2.10;;;;;;;-4.23;76.73;98819.69;108478;1274;22567;-77
2022/01/21 05:18:59;;;;;;;10.60;2.40;;;;;;;-4.24;76.88;98828.52;108441;1273;22605;-77
2022/01/21 05:21:26;;;;;;;8.30;2.00;;;;;;;-4.19;77.02;98830.38;108438;1275;22522;-76
2022/01/21 05:23:53;;;;;;;6.80;2.30;;;;;;;-4.13;76.96;98823.55;108427;1274;22626;-76
2022/01/21 05:26:20;;;;;;;7.30;2.20;;;;;;;-4.11;77.57;98825.92;108437;1274;22634;-77
2022/01/21 05:28:47;;;;;;;8.90;2.10;;;;;;;-4.10;77.37;98820.46;108435;1273;22684;-77
2022/01/21 05:31:13;;;;;;;12.30;2.60;;;;;;;-4.11;77.47;98818.10;108421;1274;22565;-75
2022/01/21 05:33:40;;;;;;;9.00;2.50;;;;;;;-4.12;77.05;98813.69;108423;1273;22580;-75
2022/01/21 05:36:07;;;;;;;8.40;2.20;;;;;;;-4.12;77.18;98809.27;108440;1273;22596;-74
2022/01/21 05:38:34;;;;;;;4.30;1.80;;;;;;;-4.15;76.93;98813.52;108415;1274;22646;-76
2022/01/21 05:41:01;;;;;;;8.30;2.60;;;;;;;-4.14;76.95;98817.61;108439;1274;22620;-75
2022/01/21 05:43:28;;;;;;;8.60;2.40;;;;;;;-4.13;76.82;98813.87;108426;1274;24115;-74
2022/01/21 05:48:41;;;;;;;10.30;3.20;;;;;;;-4.05;77.07;98815.87;108436;1273;22624;-79
2022/01/21 05:51:07;;;;;;;8.90;2.40;;;;;;;-4.00;77.14;98819.07;108424;1274;22563;-79
2022/01/21 05:53:34;;;;;;;9.50;2.60;;;;;;;-3.98;77.53;98817.20;108414;1274;24422;-76
2022/01/21 05:56:02;;;;;;;11.20;2.30;;;;;;;-3.96;78.14;98817.20;108440;1273;22591;-77
2022/01/21 05:58:29;;;;;;;7.60;2.50;;;;;;;-3.96;78.01;98824.17;108429;1273;22631;-76
2022/01/21 06:00:56;;;;;;;10.90;3.10;;;;;;;-3.98;77.70;98822.30;108415;1273;22582;-75
2022/01/21 06:03:24;;;;;;;8.30;2.30;;;;;;;-3.97;77.56;98826.05;108419;1274;22549;-75
2022/01/21 06:05:51;;;;;;;6.60;2.80;;;;;;;-3.96;77.34;98823.50;108417;1273;22623;-75
2022/01/21 06:08:18;;;;;;;9.90;3.10;;;;;;;-4.00;77.38;98822.48;108434;1273;25355;-75
2022/01/21 06:10:45;;;;;;;13.90;3.10;;;;;;;-4.01;77.43;98827.75;108429;1274;22672;-76
2022/01/21 06:13:17;;;;;;;13.60;3.80;;;;;;;-3.98;77.66;98829.28;108435;1274;22646;-76
2022/01/21 06:15:45;;;;;;;9.20;3.20;;;;;;;-3.96;77.89;98831.32;108433;1274;22623;-76
2022/01/21 06:18:12;;;;;;;10.40;3.10;;;;;;;-3.94;78.12;98831.64;108443;1274;24262;-79
2022/01/21 06:20:39;;;;;;;7.10;2.20;;;;;;;-3.92;78.43;98834.17;108419;1274;22579;-77
2022/01/21 06:23:06;;;;;;;7.80;2.30;;;;;;;-3.90;78.86;98836.90;108424;1274;22554;-77
2022/01/21 06:25:33;;;;;;;10.30;3.40;;;;;;;-3.88;78.68;98840.14;108445;1274;22687;-76
2022/01/21 06:28:00;;;;;;;12.90;4.70;;;;;;;-3.89;78.34;98843.02;108439;1274;24394;-76
2022/01/21 06:30:27;;;;;;;11.80;2.90;;;;;;;-3.90;78.22;98841.15;108463;1274;25416;-77
2022/01/21 06:32:54;;;;;;;9.30;3.20;;;;;;;-3.89;78.15;98847.45;108447;1274;25398;-76
2022/01/21 06:35:21;;;;;;;7.20;2.40;;;;;;;-3.91;78.11;98845.07;108426;1273;22664;-74
2022/01/21 06:37:48;;;;;;;14.30;4.00;;;;;;;-3.91;78.08;98846.60;108423;1274;22568;-76
2022/01/21 06:40:17;;;;;;;8.90;3.10;;;;;;;-3.87;78.22;98852.21;108442;1274;22561;-75
2022/01/21 06:42:44;;;;;;;14.20;3.20;;;;;;;-3.84;78.64;98858.48;108439;1274;23023;-76
2022/01/21 06:45:11;;;;;;;11.10;2.90;;;;;;;-3.79;78.87;98859.16;108453;1274;22568;-76
2022/01/21 06:47:38;;;;;;;9.10;3.20;;;;;;;-3.79;79.07;98858.98;108433;1274;22588;-75
2022/01/21 06:50:06;;;;;;;8.80;2.80;;;;;;;-3.80;78.99;98859.33;108425;1274;22662;-75
2022/01/21 06:52:33;;;;;;;10.00;2.90;;;;;;;-3.80;78.91;98860.00;108456;1274;24101;-75
2022/01/21 06:55:00;;;;;;;10.50;2.60;;;;;;;-3.83;78.66;98860.86;108443;1274;22595;-76
2022/01/21 06:57:28;;;;;;;6.50;2.20;;;;;;;-3.84;78.79;98860.86;108410;1274;22547;-75
2022/01/21 06:59:55;;;;;;;5.40;2.50;;;;;;;-3.84;78.60;98860.02;108411;1274;22569;-77
2022/01/21 07:02:22;;;;;;;9.40;2.60;;;;;;;-3.84;78.58;98856.45;108427;1274;22617;-77
2022/01/21 07:04:50;;;;;;;11.80;3.40;;;;;;;-3.84;78.57;98858.81;108442;1274;22575;-77
2022/01/21 07:07:17;;;;;;;11.90;3.90;;;;;;;-3.84;78.65;98860.68;108418;1274;22557;-77
2022/01/21 07:09:44;;;;;;;16.10;4.10;;;;;;;-3.79;78.52;98865.61;108443;1274;22565;-77
2022/01/21 07:12:10;;;;;;;9.90;4.00;;;;;;;-3.74;78.87;98871.38;108418;1274;24266;-77
2022/01/21 07:14:37;;;;;;;17.70;4.20;;;;;;;-3.69;79.41;98867.62;108438;1274;22660;-76
2022/01/21 07:17:04;;;;;;;12.30;3.80;;;;;;;-3.64;79.69;98867.23;108448;1274;22830;-76
2022/01/21 07:19:32;;;;;;;13.50;3.90;;;;;;;-3.64;79.55;98865.71;108443;1274;26655;-77
2022/01/21 07:22:00;;;;;;;10.80;3.80;;;;;;;-3.64;79.30;98869.45;108440;1274;22553;-75
2022/01/21 07:24:27;;;;;;;11.00;2.60;;;;;;;-3.63;78.99;98870.13;108445;1274;22642;-75
2022/01/21 07:26:54;;;;;;;9.80;3.00;;;;;;;-3.60;78.99;98876.94;108489;1274;23560;-76
2022/01/21 07:29:22;;;;;;;11.40;3.40;;;;;;;-3.58;79.00;98881.02;108510;1274;22561;-77
2022/01/21 07:31:53;;;;;;;9.70;3.20;;;;;;;-3.55;79.06;98881.67;108517;1274;24269;-78
2022/01/21 07:34:25;;;;;;;11.10;3.30;;;;;;;-3.48;79.59;98881.30;108476;1274;22598;-76
2022/01/21 07:36:54;;;;;;;11.50;2.60;;;;;;;-3.47;79.68;98881.29;108465;1274;22557;-78
2022/01/21 07:39:21;;;;;;;11.70;3.70;;;;;;;-3.46;79.68;98882.64;108443;1274;25675;-77
2022/01/21 07:41:49;;;;;;;8.30;2.90;;;;;;;-3.46;79.52;98882.14;108435;1274;26714;-76
2022/01/21 07:44:18;;;;;;;11.00;3.90;;;;;;;-3.41;79.41;98883.48;108448;1274;22670;-76
2022/01/21 07:46:46;;;;;;;9.60;3.90;;;;;;;-3.39;79.31;98881.59;108432;1274;25498;-75
2022/01/21 07:49:15;;;;;;;18.30;4.80;;;;;;;-3.38;79.26;98880.39;108447;1274;22545;-76
2022/01/21 07:51:43;;;;;;;15.80;5.50;;;;;;;-3.33;79.12;98881.40;108465;1274;22579;-78
2022/01/21 07:54:11;;;;;;;14.70;6.00;;;;;;;-3.27;79.39;98884.92;108445;1274;22750;-76
2022/01/21 07:56:38;;;;;;;13.40;4.50;;;;;;;-3.22;79.86;98882.35;108444;1274;22582;-78
2022/01/21 07:59:08;;;;;;;12.50;4.00;;;;;;;-3.26;80.08;98886.11;108494;1274;22542;-79
2022/01/21 08:01:36;;;;;;;12.80;4.10;;;;;;;-3.28;80.02;98889.02;108435;1274;22562;-78
2022/01/21 08:04:03;;;;;;;14.50;3.90;;;;;;;-3.25;79.53;98890.04;108462;1274;22552;-78
2022/01/21 08:06:31;;;;;;;9.00;3.20;;;;;;;-3.26;79.47;98888.33;108493;1274;22553;-78
2022/01/21 08:08:59;;;;;;;10.40;3.40;;;;;;;-3.28;79.57;98885.27;108503;1274;22643;-77
2022/01/21 08:11:27;;;;;;;16.50;5.10;;;;;;;-3.26;79.52;98884.92;108442;1274;22562;-78
2022/01/21 08:13:54;;;;;;;12.90;4.00;;;;;;;-3.21;79.74;98884.38;108456;1274;22562;-77
2022/01/21 08:16:21;;;;;;;17.60;5.10;;;;;;;-3.14;80.14;98884.02;108435;1274;24002;-77
2022/01/21 08:18:49;;;;;;;14.10;3.70;;;;;;;-3.13;80.24;98882.45;108422;1274;22568;-77
2022/01/21 08:21:19;;;;;;;12.80;3.90;;;;;;;-3.10;80.18;98888.39;108518;1274;22556;-78
2022/01/21 08:23:52;;;;;;;16.30;5.50;;;;;;;-3.09;80.02;98888.73;108504;1274;22555;-77
2022/01/21 08:26:25;;;;;;;11.10;4.80;;;;;;;-3.07;79.61;98883.79;108474;1274;22553;-78
2022/01/21 08:28:54;;;;;;;15.40;5.60;;;;;;;-3.07;79.55;98883.11;108431;1273;22853;-79
2022/01/21 08:31:21;;;;;;;8.70;3.70;;;;;;;-3.04;79.44;98882.40;108493;1274;22579;-79
2022/01/21 08:33:48;;;;;;;10.00;4.10;;;;;;;-2.98;79.29;98884.23;108425;1274;25650;-77
2022/01/21 08:36:18;;;;;;;18.50;6.40;;;;;;;-2.93;79.63;98885.38;108454;1274;22629;-77
2022/01/21 08:38:46;;;;;;;12.60;3.90;;;;;;;-2.89;79.71;98888.44;108439;1274;22627;-77
2022/01/21 08:41:13;;;;;;;9.90;3.30;;;;;;;-2.85;79.84;98892.14;108420;1275;22620;-79
2022/01/21 08:43:40;;;;;;;10.20;2.90;;;;;;;-2.85;79.63;98894.17;108523;1274;24227;-76
2022/01/21 08:46:07;;;;;;;9.70;3.40;;;;;;;-2.80;79.05;98889.21;108466;1274;25292;-78
2022/01/21 08:48:35;;;;;;;12.50;3.50;;;;;;;-2.80;78.70;98895.36;108448;1274;22620;-78
2022/01/21 08:51:08;;;;;;;9.20;4.20;;;;;;;-2.80;78.55;98901.15;108452;1274;22589;-78
2022/01/21 08:53:38;;;;;;;9.20;3.30;;;;;;;-2.78;78.30;98904.19;108460;1274;24246;-78
2022/01/21 08:56:11;;;;;;;12.30;4.00;;;;;;;-2.75;78.43;98910.14;108463;1274;22672;-77
2022/01/21 08:58:38;;;;;;;;;;;;;;;-2.69;78.71;98918.28;108463;1274;22614;-76
2022/01/21 09:01:06;;;;;;;12.50;4.60;;;;;;;-2.66;78.86;98912.95;108464;1274;22623;-76
2022/01/21 09:03:33;;;;;;;10.50;3.30;;;;;;;-2.60;79.02;98908.83;108458;1274;22587;-75
2022/01/21 09:06:00;;;;;;;9.20;3.50;;;;;;;-2.57;78.66;98904.36;108433;1274;22603;-75
2022/01/21 09:08:30;;;;;;;9.50;3.10;;;;;;;-2.57;78.18;98905.91;108435;1274;22576;-74
2022/01/21 09:11:03;;;;;;;12.40;3.80;;;;;;;-2.55;77.75;98907.77;108457;1273;22548;-76
2022/01/21 09:13:31;;;;;;;;;;;;;;;-2.55;77.75;98906.91;108459;1273;22643;-76
2022/01/21 09:16:00;;;;;;;10.30;3.40;;;;;;;-2.51;77.67;98907.73;108438;1274;22573;-76
2022/01/21 09:18:46;;;;;;;8.60;3.10;;;;;;;-2.47;77.30;98898.13;108442;1274;22566;-76
2022/01/21 09:21:16;;;;;;;13.00;3.90;;;;;;;-2.37;77.19;98896.52;108420;1274;22697;-75
2022/01/21 09:23:47;;;;;;;13.60;3.30;;;;;;;-2.31;77.14;98900.38;108500;1274;22623;-76
2022/01/21 09:26:18;;;;;;;14.00;4.00;;;;;;;-2.21;77.58;98900.45;108461;1274;22563;-77
2022/01/21 09:28:46;;;;;;;8.00;2.40;;;;;;;-2.10;76.77;98904.10;108431;1274;22563;-77
2022/01/21 09:31:14;;;;;;;10.90;2.40;;;;;;;-2.10;75.80;98910.25;108426;1274;22574;-75
2022/01/21 09:33:42;;;;;;;7.00;2.50;;;;;;;-2.12;75.78;98906.67;108446;1273;24451;-75
2022/01/21 09:36:11;;;;;;;8.20;2.60;;;;;;;-2.11;75.67;98912.48;108452;1274;25432;-75
2022/01/21 09:38:40;;;;;;;13.50;3.60;;;;;;;-2.11;74.84;98911.79;108440;1274;22570;-76
2022/01/21 09:41:09;;;;;;;8.00;2.80;;;;;;;-2.09;74.84;98906.14;108415;1274;25413;-74
2022/01/21 09:43:38;;;;;;;10.80;3.30;;;;;;;-2.03;74.60;98913.76;108495;1274;22552;-75
2022/01/21 09:46:07;;;;;;;11.60;2.90;;;;;;;-2.08;73.91;98904.93;108419;1274;22594;-75
2022/01/21 09:48:49;;;;;;;9.20;2.40;;;;;;;-2.06;73.88;98909.18;108450;1273;22705;-76
2022/01/21 09:51:17;;;;;;;8.90;2.60;;;;;;;-2.10;73.57;98909.56;108456;1273;22555;-75
2022/01/21 09:53:44;;;;;;;9.80;2.90;;;;;;;-2.11;73.43;98911.11;108467;1273;22554;-77
2022/01/21 09:56:14;;;;;;;16.80;4.40;;;;;;;-2.14;73.50;98909.27;108449;1273;25646;-76
2022/01/21 09:58:45;;;;;;;19.40;6.40;;;;;;;-2.13;73.46;98909.08;108464;1274;22589;-75
2022/01/21 10:01:13;;;;;;;14.00;5.40;;;;;;;-2.09;73.88;98908.19;108445;1274;22586;-76
2022/01/21 10:03:44;;;;;;;13.10;4.40;;;;;;;-2.05;73.98;98907.12;108473;1273;24411;-76
2022/01/21 10:06:12;;;;;;;15.20;4.00;;;;;;;-2.04;73.97;98901.81;108426;1273;22694;-76
2022/01/21 10:08:41;;;;;;;11.30;3.60;;;;;;;-2.06;73.28;98901.67;108451;1274;22565;-75
2022/01/21 10:11:09;;;;;;;11.70;3.70;;;;;;;-2.09;73.28;98899.32;108429;1273;22578;-75
2022/01/21 10:13:37;;;;;;;11.00;3.60;;;;;;;-2.14;72.94;98897.14;108431;1273;22553;-76
2022/01/21 10:16:06;;;;;;;10.00;2.70;;;;;;;-2.15;72.77;98897.17;108464;1273;22549;-76
2022/01/21 10:18:33;;;;;;;11.20;3.10;;;;;;;-2.17;72.60;98892.91;108461;1274;22580;-76
2022/01/21 10:21:11;;;;;;;14.20;3.80;;;;;;;-2.22;72.36;98892.96;108456;1274;22550;-74
2022/01/21 10:23:42;;;;;;;7.20;2.20;;;;;;;-2.22;72.08;98884.94;108470;1273;22566;-75
2022/01/21 10:26:12;;;;;;;10.80;2.70;;;;;;;-2.21;71.94;98890.89;108454;1274;22555;-75
2022/01/21 10:28:43;;;;;;;10.90;3.10;;;;;;;-2.24;72.24;98893.67;108450;1273;23178;-74
2022/01/21 10:31:14;;;;;;;14.90;4.40;;;;;;;-2.27;72.54;98890.29;108459;1273;22569;-75
2022/01/21 10:33:43;;;;;;;13.00;3.70;;;;;;;-2.24;72.37;98892.30;108449;1273;22545;-76
2022/01/21 10:36:26;;;;;;;12.20;3.80;;;;;;;-2.22;72.22;98891.08;108456;1273;22620;-76
2022/01/21 10:39:19;;;;;;;;;;;;;;;-2.19;72.11;98891.91;108470;1274;23893;-78
2022/01/21 10:41:47;;;;;;;11.80;3.70;;;;;;;-2.20;71.66;98900.79;108445;1274;22566;-76
2022/01/21 10:44:17;;;;;;;13.40;5.00;;;;;;;-2.25;71.48;98888.56;108469;1274;22585;-77
2022/01/21 10:47:10;;;;;;;16.40;4.20;;;;;;;-2.27;71.58;98889.44;108472;1273;22703;-78
2022/01/21 10:49:40;;;;;;;10.40;3.30;;;;;;;-2.20;71.89;98889.86;108511;1274;24119;-78
2022/01/21 10:52:09;;;;;;;6.90;2.30;;;;;;;-2.10;71.53;98888.75;108481;1273;22579;-77
2022/01/21 10:54:51;;;;;;;9.00;2.10;;;;;;;-2.07;71.39;98891.63;108430;1273;22560;-76
2022/01/21 10:57:19;;;;;;;7.20;2.50;;;;;;;-2.04;70.94;98891.73;108464;1273;22561;-75
2022/01/21 10:59:49;;;;;;;10.40;3.00;;;;;;;-2.04;71.03;98891.23;108459;1274;22574;-76
2022/01/21 11:02:48;;;;;;;9.20;2.90;;;;;;;-2.01;70.97;98891.21;108466;1273;22551;-74
2022/01/21 11:05:21;;;;;;;10.60;3.90;;;;;;;-1.97;71.10;98888.42;108447;1274;22571;-76
2022/01/21 11:07:51;;;;;;;11.60;3.60;;;;;;;-1.90;70.73;98887.00;108445;1274;22598;-75
2022/01/21 11:10:36;;;;;;;8.80;3.10;;;;;;;-1.89;70.56;98884.41;108438;1273;22636;-76
2022/01/21 11:13:27;;;;;;;10.60;2.90;;;;;;;-1.91;70.44;98885.47;108414;1273;22564;-76
2022/01/21 11:15:57;;;;;;;6.60;2.30;;;;;;;-1.89;70.73;98890.55;108435;1273;22704;-76
2022/01/21 11:18:28;;;;;;;7.00;2.30;;;;;;;-1.80;70.71;98888.77;108437;1274;22552;-76
2022/01/21 11:21:10;;;;;;;8.10;2.00;;;;;;;-1.75;70.45;98880.15;108438;1274;22570;-76
2022/01/21 11:23:38;;;;;;;6.90;2.00;;;;;;;-1.78;70.03;98884.13;108407;1274;25320;-77
2022/01/21 11:26:09;;;;;;;9.80;2.50;;;;;;;-1.79;69.43;98874.05;108450;1274;22549;-76
2022/01/21 11:28:38;;;;;;;6.80;2.20;;;;;;;-1.88;69.29;98873.99;108417;1274;22694;-77
2022/01/21 11:31:07;;;;;;;7.60;2.20;;;;;;;-1.94;69.27;98868.25;108431;1274;22588;-76
2022/01/21 11:33:35;;;;;;;8.30;2.10;;;;;;;-2.01;69.67;98864.41;108439;1273;24316;-74
2022/01/21 11:36:05;;;;;;;8.10;2.30;;;;;;;-2.10;69.68;98866.73;108444;1273;24243;-76
2022/01/21 11:38:36;;;;;;;8.30;2.50;;;;;;;-2.12;69.77;98869.30;108470;1273;25436;-77
2022/01/21 11:41:06;;;;;;;6.00;2.00;;;;;;;-2.07;69.73;98868.59;108468;1273;22623;-77
2022/01/21 11:43:35;;;;;;;7.50;1.90;;;;;;;-2.04;70.08;98868.02;108503;1273;22558;-76
2022/01/21 11:46:19;;;;;;;7.20;2.40;;;;;;;-1.96;70.11;98868.11;108438;1274;22561;-76
2022/01/21 11:48:51;;;;;;;7.90;1.90;;;;;;;-1.86;70.20;98862.87;108433;1273;25493;-75
2022/01/21 11:51:34;;;;;;;6.30;2.10;;;;;;;-1.76;70.07;98860.02;108434;1273;22592;-76
2022/01/21 11:54:05;;;;;;;10.60;2.80;;;;;;;-1.64;69.73;98858.01;108427;1273;24233;-77
2022/01/21 11:56:43;;;;;;;8.90;2.70;;;;;;;-1.57;69.85;98857.39;108448;1273;22566;-76
2022/01/21 11:59:15;;;;;;;11.00;4.40;;;;;;;-1.46;69.23;98850.42;108434;1273;22628;-76
2022/01/21 12:01:47;;;;;;;11.10;3.80;;;;;;;-1.44;69.09;98850.58;108440;1273;25648;-77
2022/01/21 12:04:39;;;;;;;10.90;3.80;;;;;;;-1.43;68.67;98845.08;108414;1273;22617;-75
2022/01/21 12:07:35;;;;;;;6.60;2.50;;;;;;;-1.45;68.48;98842.38;108390;1273;22549;-78
2022/01/21 12:10:26;;;;;;;6.90;2.10;;;;;;;-1.48;68.75;98841.22;108440;1274;22721;-76
2022/01/21 12:12:55;;;;;;;8.20;2.70;;;;;;;-1.48;68.38;98843.60;108410;1273;22681;-76
2022/01/21 12:21:37;;;;;;;11.50;3.90;;;;;;;-1.53;68.23;98840.77;108427;1273;22542;-76
2022/01/21 12:24:07;;;;;;;11.00;3.30;;;;;;;-1.56;67.91;98831.42;108416;1273;22563;-76
2022/01/21 12:26:35;;;;;;;8.70;2.70;;;;;;;-1.60;67.71;98838.98;108417;1273;22564;-76
2022/01/21 12:29:02;;;;;;;9.70;2.40;;;;;;;-1.63;67.49;98842.78;108460;1273;22547;-76
2022/01/21 12:31:39;;;;;;;10.10;3.70;;;;;;;-1.69;67.60;98841.98;108460;1273;22558;-76